Time;durP1;ratioP1;P1;durP2;ratioP2;P2;SDS_P1;SDS_P2;PMS_P1;PMS_P2;Temp;Humidity;BMP_temperature;BMP_pressure;BME280_temperature;BME280_humidity;BME280_pressure;Samples;Min_cycle;Max_cycle;Signal;HPM_P1;HPM_P2
2022/07/06 00:01:50;;;;;;;;;4.25;4.25;;;;;17.15;100.00;102253.91;5003941;28;45367;-88
2022/07/06 00:04:16;;;;;;;;;4.80;4.80;;;;;17.19;100.00;102266.16;5000930;28;45222;-88
2022/07/06 00:06:42;;;;;;;;;4.00;4.00;;;;;17.20;100.00;102275.91;5000807;28;44897;-88
2022/07/06 00:09:07;;;;;;;;;4.00;4.00;;;;;17.15;100.00;102272.69;4998436;28;44969;-88
2022/07/06 00:11:33;;;;;;;;;5.25;4.25;;;;;17.10;100.00;102261.41;4981810;28;44794;-88
2022/07/06 00:13:58;;;;;;;;;6.25;5.00;;;;;17.10;100.00;102266.78;5005128;28;44801;-88
2022/07/06 00:16:24;;;;;;;;;2.00;2.00;;;;;17.08;100.00;102259.81;5005719;28;45473;-88
2022/07/06 00:18:50;;;;;;;;;3.75;3.75;;;;;17.06;100.00;102257.22;5003882;28;45196;-89
2022/07/06 00:21:15;;;;;;;;;4.25;4.25;;;;;17.01;100.00;102261.22;5002587;28;45219;-88
2022/07/06 00:23:41;;;;;;;;;5.00;4.00;;;;;16.99;100.00;102260.47;5002700;28;45384;-89
2022/07/06 00:26:07;;;;;;;;;5.00;5.00;;;;;16.99;100.00;102263.16;5003271;28;44806;-88
2022/07/06 00:28:32;;;;;;;;;5.00;4.00;;;;;16.94;100.00;102258.09;5004790;28;45173;-88
2022/07/06 00:30:57;;;;;;;;;3.00;3.00;;;;;16.89;100.00;102265.63;5007828;28;44720;-88
2022/07/06 00:33:24;;;;;;;;;2.00;2.00;;;;;16.83;100.00;102268.72;5006396;28;45187;-87
2022/07/06 00:35:49;;;;;;;;;3.20;3.20;;;;;16.83;100.00;102268.72;5007107;28;44917;-88
2022/07/06 00:38:15;;;;;;;;;6.75;3.00;;;;;16.86;100.00;102265.81;4988326;28;45415;-88
2022/07/06 00:40:40;;;;;;;;;4.50;4.50;;;;;16.82;100.00;102272.34;4986378;28;45239;-87
2022/07/06 00:43:06;;;;;;;;;5.00;3.50;;;;;16.77;100.00;102274.50;5010042;28;45311;-88
2022/07/06 00:45:31;;;;;;;;;2.25;2.25;;;;;16.77;100.00;102258.41;4991274;28;44884;-88
2022/07/06 00:47:56;;;;;;;;;2.75;2.75;;;;;16.76;100.00;102249.50;4987176;28;45490;-88
2022/07/06 00:50:22;;;;;;;;;4.00;4.00;;;;;16.75;100.00;102260.34;5003326;28;44712;-88
2022/07/06 00:52:54;;;;;;;;;4.00;4.00;;;;;16.72;100.00;102258.72;4969718;28;45261;-88
2022/07/06 00:55:22;;;;;;;;;4.00;4.00;;;;;16.72;100.00;102250.66;4984831;28;44910;-88
2022/07/06 00:57:48;;;;;;;;;5.00;4.00;;;;;16.71;100.00;102254.28;5002083;28;45612;-87
2022/07/06 01:00:16;;;;;;;;;4.75;4.75;;;;;16.70;100.00;102253.44;4984442;28;44848;-88
2022/07/06 01:02:42;;;;;;;;;2.00;2.00;;;;;16.69;100.00;102254.41;4985262;28;44693;-88
2022/07/06 01:05:09;;;;;;;;;5.75;3.75;;;;;16.64;100.00;102251.16;4983421;28;45502;-88
2022/07/06 01:07:36;;;;;;;;;2.00;2.00;;;;;16.64;100.00;102266.41;4983939;28;46876;-88
2022/07/06 01:10:06;;;;;;;;;4.20;4.00;;;;;16.62;100.00;102263.81;5005881;28;44852;-88
2022/07/06 01:12:36;;;;;;;;;4.00;3.60;;;;;16.65;100.00;102257.38;5000801;28;45423;-88
2022/07/06 01:15:07;;;;;;;;;6.40;5.00;;;;;16.63;100.00;102256.63;5002773;28;44965;-88
2022/07/06 01:17:33;;;;;;;;;0.20;0.00;;;;;16.61;100.00;102256.72;5003659;28;45227;-88
2022/07/06 01:20:24;;;;;;;;;5.40;4.00;;;;;16.58;100.00;102261.44;5005336;28;44700;-88
2022/07/06 01:22:51;;;;;;;;;4.80;3.00;;;;;16.56;100.00;102266.06;5014092;28;44732;-88
2022/07/06 01:25:17;;;;;;;;;4.00;4.00;;;;;16.57;100.00;102267.78;5015990;28;44708;-89
2022/07/06 01:27:43;;;;;;;;;4.00;4.00;;;;;16.52;100.00;102269.91;5021870;28;45171;-88
2022/07/06 01:30:14;;;;;;;;;7.75;4.00;;;;;16.50;100.00;102263.81;5010520;28;44739;-89
2022/07/06 01:32:40;;;;;;;;;5.40;4.20;;;;;16.48;100.00;102276.44;4985274;28;44759;-89
2022/07/06 01:35:08;;;;;;;;;4.00;3.20;;;;;16.40;100.00;102260.88;5002779;28;44799;-88
2022/07/06 01:37:34;;;;;;;;;5.80;5.80;;;;;16.41;100.00;102270.63;5004105;28;44992;-89
2022/07/06 01:40:06;;;;;;;;;4.25;4.25;;;;;16.40;100.00;102263.56;4989946;28;44641;-89
2022/07/06 01:42:31;;;;;;;;;4.00;4.00;;;;;16.39;100.00;102268.06;5013004;28;44767;-89
2022/07/06 01:44:57;;;;;;;;;4.75;3.00;;;;;16.41;100.00;102257.22;4988699;28;44923;-89
2022/07/06 01:47:23;;;;;;;;;7.25;4.50;;;;;16.46;100.00;102265.81;4986366;28;46722;-90
2022/07/06 01:49:48;;;;;;;;;4.00;4.00;;;;;16.47;100.00;102264.84;5010539;28;45191;-88
2022/07/06 01:52:15;;;;;;;;;5.00;5.00;;;;;16.49;100.00;102265.63;5002403;28;45404;-88
2022/07/06 01:54:40;;;;;;;;;2.80;2.80;;;;;16.48;100.00;102263.03;5003664;28;45227;-88
2022/07/06 01:57:06;;;;;;;;;5.25;5.25;;;;;16.46;100.00;102255.09;5003811;28;45350;-88
2022/07/06 01:59:31;;;;;;;;;4.00;4.00;;;;;16.43;100.00;102258.84;5004866;28;45273;-88
2022/07/06 02:01:56;;;;;;;;;5.00;5.00;;;;;16.45;100.00;102264.13;5004065;28;44983;-88
2022/07/06 02:04:22;;;;;;;;;3.50;2.00;;;;;16.44;100.00;102257.03;4986793;28;45296;-88
2022/07/06 02:06:48;;;;;;;;;4.75;4.75;;;;;16.45;100.00;102267.66;5005903;28;45869;-89
2022/07/06 02:09:13;;;;;;;;;5.00;4.00;;;;;16.40;100.00;102261.75;4991297;28;45318;-88
2022/07/06 02:11:39;;;;;;;;;4.25;2.75;;;;;16.37;100.00;102255.72;5005123;28;45241;-88
2022/07/06 02:14:04;;;;;;;;;5.00;5.00;;;;;16.36;100.00;102252.19;5006368;28;44870;-88
2022/07/06 02:16:30;;;;;;;;;3.25;2.25;;;;;16.29;100.00;102258.03;5006314;28;45392;-89
2022/07/06 02:18:55;;;;;;;;;7.50;6.00;;;;;16.31;100.00;102264.19;5006392;28;45446;-88
2022/07/06 02:21:21;;;;;;;;;6.25;6.25;;;;;16.30;100.00;102257.09;5016881;28;45145;-88
2022/07/06 02:23:47;;;;;;;;;6.25;4.75;;;;;16.29;100.00;102258.91;5016137;28;45275;-88
2022/07/06 02:26:12;;;;;;;;;9.50;5.50;;;;;16.29;100.00;102258.03;5016694;28;45437;-88
2022/07/06 02:28:37;;;;;;;;;4.00;4.00;;;;;16.27;100.00;102252.78;5020260;28;44758;-88
2022/07/06 02:31:03;;;;;;;;;7.00;5.75;;;;;16.24;100.00;102242.25;5023702;28;44715;-87
2022/07/06 02:33:30;;;;;;;;;10.00;7.50;;;;;16.25;100.00;102245.81;5024169;28;44867;-88
2022/07/06 02:35:56;;;;;;;;;6.80;6.80;;;;;16.23;100.00;102247.72;5022329;28;45191;-88
2022/07/06 02:38:21;;;;;;;;;6.50;4.75;;;;;16.21;100.00;102241.63;5023763;28;44791;-87
2022/07/06 02:40:47;;;;;;;;;8.25;5.25;;;;;16.21;100.00;102247.84;5024767;28;44783;-88
2022/07/06 02:43:12;;;;;;;;;6.75;6.25;;;;;16.18;100.00;102240.00;5013812;28;44857;-89
2022/07/06 02:45:38;;;;;;;;;8.00;6.75;;;;;16.14;100.00;102243.81;5004839;28;46642;-89
2022/07/06 02:48:04;;;;;;;;;5.75;5.50;;;;;16.16;100.00;102242.78;4990087;28;44839;-88
2022/07/06 02:50:29;;;;;;;;;7.25;5.50;;;;;16.14;100.00;102243.81;4990493;28;45208;-88
2022/07/06 02:52:55;;;;;;;;;7.25;7.25;;;;;16.16;100.00;102249.97;5005648;28;45341;-89
2022/07/06 02:55:21;;;;;;;;;11.25;7.25;;;;;16.15;100.00;102261.66;5001450;28;45259;-88
2022/07/06 02:57:47;;;;;;;;;6.20;6.20;;;;;16.15;100.00;102262.53;4998130;28;44720;-88
2022/07/06 03:00:12;;;;;;;;;6.25;5.75;;;;;16.15;100.00;102267.03;4998794;28;45372;-88
2022/07/06 03:02:38;;;;;;;;;7.75;6.00;;;;;16.14;100.00;102263.44;4999256;28;45434;-89
2022/07/06 03:05:04;;;;;;;;;10.00;5.75;;;;;16.11;100.00;102262.81;4999804;28;45165;-88
2022/07/06 03:07:30;;;;;;;;;7.00;7.00;;;;;16.12;100.00;102261.84;5000093;28;45231;-88
2022/07/06 03:09:55;;;;;;;;;6.75;6.00;;;;;16.12;100.00;102267.22;4982010;28;45240;-89
2022/07/06 03:12:21;;;;;;;;;8.00;6.75;;;;;16.08;100.00;102266.53;4999844;28;44894;-88
2022/07/06 03:14:46;;;;;;;;;8.50;7.00;;;;;16.08;100.00;102273.72;5000149;28;45638;-88
2022/07/06 03:17:12;;;;;;;;;6.50;5.25;;;;;16.07;100.00;102264.84;5002097;28;45275;-88
2022/07/06 03:19:38;;;;;;;;;5.25;5.25;;;;;16.08;100.00;102271.91;5005587;28;44708;-88
2022/07/06 03:22:04;;;;;;;;;5.75;5.75;;;;;16.06;100.00;102271.16;4986185;28;45472;-86
2022/07/06 03:24:29;;;;;;;;;6.75;6.25;;;;;16.05;100.00;102272.13;4987439;28;45113;-88
2022/07/06 03:26:55;;;;;;;;;7.00;7.00;;;;;16.02;100.00;102266.97;5005136;28;44810;-88
2022/07/06 03:29:20;;;;;;;;;5.50;4.75;;;;;16.02;100.00;102264.28;5004718;28;45307;-89
2022/07/06 03:31:46;;;;;;;;;7.00;6.75;;;;;16.03;100.00;102273.19;5008150;28;44899;-88
2022/07/06 03:34:11;;;;;;;;;7.25;5.75;;;;;16.01;100.00;102267.94;5007400;28;45155;-88
2022/07/06 03:36:37;;;;;;;;;6.00;6.00;;;;;16.00;100.00;102271.53;5003947;28;44760;-88
2022/07/06 03:39:03;;;;;;;;;8.60;7.20;;;;;16.00;100.00;102278.72;5003880;28;44747;-86
2022/07/06 03:41:28;;;;;;;;;6.00;6.00;;;;;16.00;100.00;102284.09;5000071;28;45278;-86
2022/07/06 03:43:54;;;;;;;;;3.00;3.00;;;;;16.02;100.00;102290.22;4991273;28;45219;-87
2022/07/06 03:46:19;;;;;;;;;11.00;7.25;;;;;16.02;100.00;102277.69;4998293;28;44665;-86
2022/07/06 03:48:44;;;;;;;;;8.50;8.50;;;;;16.05;100.00;102276.59;4988081;28;45383;-87
2022/07/06 03:51:10;;;;;;;;;6.50;5.50;;;;;16.04;100.00;102285.63;5014774;28;44735;-85
2022/07/06 03:53:36;;;;;;;;;8.00;6.25;;;;;15.99;100.00;102283.22;5011313;28;47246;-86
2022/07/06 03:58:46;;;;;;;;;7.00;7.00;;;;;16.05;100.00;102290.00;5002677;28;44699;-86
2022/07/06 04:01:11;;;;;;;;;7.00;7.00;;;;;16.04;100.00;102283.78;5002019;28;44920;-86
2022/07/06 04:03:37;;;;;;;;;7.75;7.75;;;;;16.04;100.00;102283.78;5001238;28;45252;-86
2022/07/06 04:06:02;;;;;;;;;5.50;5.00;;;;;16.09;100.00;102281.66;4999256;28;44744;-86
2022/07/06 04:08:28;;;;;;;;;7.25;7.25;;;;;16.12;100.00;102284.16;4966078;28;45389;-86
2022/07/06 04:10:53;;;;;;;;;6.50;6.50;;;;;16.17;100.00;102286.53;5000054;28;44798;-86
2022/07/06 04:13:19;;;;;;;;;9.75;8.25;;;;;16.26;100.00;102290.44;4982275;28;46888;-87
2022/07/06 04:15:44;;;;;;;;;10.50;6.00;;;;;16.38;100.00;102294.97;5003662;28;45366;-79
2022/07/06 04:18:09;;;;;;;;;8.25;7.25;;;;;16.46;100.00;102284.59;4994869;28;45534;-79
2022/07/06 04:20:35;;;;;;;;;10.00;7.50;;;;;16.55;100.00;102289.34;4978585;28;45360;-79
2022/07/06 04:23:01;;;;;;;;;8.00;5.75;;;;;16.65;100.00;102284.22;4978841;28;45247;-79
2022/07/06 04:25:26;;;;;;;;;7.25;7.25;;;;;16.75;100.00;102288.03;4961514;28;45645;-79
2022/07/06 04:27:52;;;;;;;;;6.00;6.00;;;;;16.85;100.00;102288.25;4978967;28;44672;-79
2022/07/06 04:30:18;;;;;;;;;7.50;7.50;;;;;16.94;100.00;102288.50;4978249;28;44955;-79
2022/07/06 04:32:43;;;;;;;;;6.75;4.75;;;;;17.08;100.00;102292.06;4978314;28;44992;-79
2022/07/06 04:35:09;;;;;;;;;8.00;6.25;;;;;17.15;100.00;102287.97;4978940;28;45358;-79
2022/07/06 04:37:34;;;;;;;;;9.00;6.25;;;;;17.22;100.00;102289.25;4979234;28;45444;-79
2022/07/06 04:40:00;;;;;;;;;7.50;6.25;;;;;17.37;100.00;102288.19;4985966;28;45326;-80
2022/07/06 04:42:25;;;;;;;;;7.50;5.50;;;;;17.50;100.00;102290.81;4998307;28;45568;-79
2022/07/06 04:44:54;;;;;;;;;6.25;6.25;;;;;17.69;100.00;102282.31;4998222;28;44860;-79
2022/07/06 04:47:19;;;;;;;;;5.80;5.80;;;;;17.86;100.00;102284.69;4997867;28;44850;-82
2022/07/06 04:49:44;;;;;;;;;3.50;2.00;;;;;17.94;100.00;102289.50;4998609;28;45302;-86
2022/07/06 04:52:10;;;;;;;;;5.50;5.00;;;;;18.06;100.00;102285.91;4998861;28;45414;-83
2022/07/06 04:54:35;;;;;;;;;7.00;7.00;;;;;18.22;100.00;102281.09;5000786;28;44818;-82
2022/07/06 04:57:01;;;;;;;;;8.25;4.00;;;;;18.41;100.00;102282.41;5002064;28;45360;-81
2022/07/06 04:59:26;;;;;;;;;5.50;5.50;;;;;18.53;100.00;102288.69;4982493;28;44855;-82
2022/07/06 05:01:52;;;;;;;;;7.00;7.00;;;;;18.57;100.00;102284.81;4998570;28;45335;-81
2022/07/06 05:04:20;;;;;;;;;6.75;6.75;;;;;18.64;100.00;102284.22;4998175;28;45467;-82
2022/07/06 05:06:46;;;;;;;;;6.20;6.20;;;;;18.82;100.00;102287.38;4980784;28;45348;-82
2022/07/06 05:09:12;;;;;;;;;4.40;4.40;;;;;18.89;100.00;102275.13;4998923;28;44994;-81
2022/07/06 05:11:38;;;;;;;;;5.40;4.60;;;;;19.02;100.00;102287.66;4997693;28;45438;-81
2022/07/06 05:14:05;;;;;;;;;5.20;5.20;;;;;19.01;100.00;102289.50;4997094;28;45496;-82
2022/07/06 05:16:31;;;;;;;;;6.20;4.20;;;;;18.88;100.00;102283.34;4997926;28;45413;-82
2022/07/06 05:18:56;;;;;;;;;4.25;4.25;;;;;18.91;100.00;102288.50;4997113;28;44920;-81
2022/07/06 05:21:22;;;;;;;;;8.00;7.00;;;;;19.02;100.00;102283.13;4995979;28;46567;-82
2022/07/06 05:23:49;;;;;;;;;5.75;5.75;;;;;19.25;100.00;102279.47;4998037;28;44827;-82
2022/07/06 05:26:14;;;;;;;;;6.40;6.20;;;;;19.38;100.00;102283.88;5000741;28;45481;-82
2022/07/06 05:28:39;;;;;;;;;5.75;5.50;;;;;19.36;100.00;102286.72;5000358;28;45354;-82
2022/07/06 05:31:05;;;;;;;;;7.75;7.25;;;;;19.41;100.00;102295.28;4991700;28;45375;-82
2022/07/06 05:33:30;;;;;;;;;7.25;5.25;;;;;19.59;100.00;102287.56;4979406;28;45453;-81
2022/07/06 05:35:56;;;;;;;;;6.25;5.25;;;;;19.77;100.00;102283.44;4984437;28;45673;-83
2022/07/06 05:38:21;;;;;;;;;6.75;6.00;;;;;19.92;100.00;102283.13;4986467;28;44938;-83
2022/07/06 05:40:47;;;;;;;;;5.25;5.25;;;;;20.13;100.00;102286.78;4994860;28;45342;-83
2022/07/06 05:43:12;;;;;;;;;6.00;5.75;;;;;20.20;100.00;102292.50;4997786;28;45655;-82
2022/07/06 05:45:38;;;;;;;;;5.25;5.25;;;;;20.32;100.00;102288.81;4982124;28;45318;-82
2022/07/06 05:50:47;;;;;;;;;7.20;7.20;;;;;20.06;100.00;102290.09;4995613;28;45529;-82
2022/07/06 05:53:12;;;;;;;;;8.75;7.75;;;;;19.92;100.00;102297.50;4997244;28;44752;-82
2022/07/06 05:55:39;;;;;;;;;6.00;6.00;;;;;19.96;100.00;102298.94;4997541;28;44839;-81
2022/07/06 05:58:04;;;;;;;;;4.40;4.40;;;;;20.24;100.00;102312.88;4997624;28;44871;-81
2022/07/06 06:00:30;;;;;;;;;5.25;5.25;;;;;20.26;100.00;102321.72;4997674;28;45577;-81
2022/07/06 06:02:56;;;;;;;;;5.00;5.00;;;;;20.40;100.00;102318.69;4999760;28;45353;-81
2022/07/06 06:05:21;;;;;;;;;7.00;4.75;;;;;20.43;100.00;102318.44;4997108;28;44727;-81
2022/07/06 06:07:48;;;;;;;;;4.50;4.50;;;;;20.37;100.00;102320.81;4997576;28;45287;-82
2022/07/06 06:10:14;;;;;;;;;5.80;5.80;;;;;20.77;100.00;102319.19;4995502;28;45382;-81
2022/07/06 06:12:41;;;;;;;;;6.60;6.00;;;;;21.15;100.00;102319.59;4996555;28;45482;-82
2022/07/06 06:15:09;;;;;;;;;7.20;7.20;;;;;21.42;100.00;102314.53;4998053;28;44713;-82
2022/07/06 06:17:36;;;;;;;;;6.40;4.40;;;;;21.52;100.00;102314.56;5013612;28;44875;-86
2022/07/06 06:20:04;;;;;;;;;5.80;5.20;;;;;21.55;100.00;102308.88;5012204;28;46970;-88
2022/07/06 06:22:29;;;;;;;;;5.60;5.40;;;;;21.73;100.00;102312.66;5003285;28;45397;-85
2022/07/06 06:24:55;;;;;;;;;9.50;7.75;;;;;21.88;100.00;102312.28;4992337;28;45346;-87
2022/07/06 06:27:20;;;;;;;;;8.50;6.50;;;;;;;;4999343;28;45216;-86
2022/07/06 06:29:45;;;;;;;;;8.25;6.25;;;;;21.95;100.00;102318.81;5002502;28;45068;-87
2022/07/06 06:32:12;;;;;;;;;6.50;5.25;;;;;21.85;98.35;102318.78;4986767;28;44753;-87
2022/07/06 06:34:38;;;;;;;;;4.00;4.00;;;;;21.94;100.00;102311.72;4986711;28;44807;-86
2022/07/06 06:37:03;;;;;;;;;9.00;6.80;;;;;21.91;99.77;102312.00;4984205;28;44891;-87
2022/07/06 06:39:29;;;;;;;;;5.75;5.00;;;;;22.12;94.62;102309.22;4998847;28;44959;-87
2022/07/06 06:41:56;;;;;;;;;4.50;4.50;;;;;22.46;98.12;102315.97;4995657;28;44731;-87
2022/07/06 06:44:23;;;;;;;;;5.40;5.40;;;;;22.75;95.79;102312.41;4965123;28;44832;-87
2022/07/06 06:46:49;;;;;;;;;5.40;3.00;;;;;23.09;94.40;102308.22;4987392;28;44788;-87
2022/07/06 06:49:14;;;;;;;;;4.60;4.60;;;;;23.42;90.13;102318.72;4986129;28;45179;-87
2022/07/06 06:51:40;;;;;;;;;6.00;5.00;;;;;23.66;91.38;102316.38;4996995;28;44680;-87
2022/07/06 06:54:05;;;;;;;;;9.25;4.75;;;;;23.91;89.60;102316.66;4997083;28;45243;-88
2022/07/06 06:56:30;;;;;;;;;5.25;4.75;;;;;24.08;86.14;102321.28;5002255;28;45277;-87
2022/07/06 06:58:56;;;;;;;;;1.00;1.00;;;;;24.22;79.47;102330.75;5009409;28;45311;-87
2022/07/06 07:01:22;;;;;;;;;5.00;5.00;;;;;24.44;83.19;102329.50;5013809;28;45071;-85
2022/07/06 07:03:47;;;;;;;;;4.00;4.00;;;;;24.54;83.03;102324.84;5009654;28;45328;-88
2022/07/06 07:06:13;;;;;;;;;5.00;5.00;;;;;24.66;81.69;102328.16;5008146;28;44764;-87
2022/07/06 07:08:38;;;;;;;;;3.75;2.75;;;;;24.81;75.82;102332.91;5008506;28;45425;-87
2022/07/06 07:11:03;;;;;;;;;3.50;3.50;;;;;24.74;72.08;102331.81;5005515;28;44902;-87
2022/07/06 07:13:29;;;;;;;;;3.00;3.00;;;;;24.77;73.02;102334.22;4997571;28;44824;-87
2022/07/06 07:15:54;;;;;;;;;3.00;3.00;;;;;24.91;73.06;102332.81;4998027;28;44759;-87
2022/07/06 07:18:20;;;;;;;;;4.50;4.50;;;;;25.05;73.29;102332.25;4998003;28;45116;-88
2022/07/06 07:20:45;;;;;;;;;3.75;3.75;;;;;25.19;76.85;102332.69;4998597;28;45416;-88
2022/07/06 07:23:11;;;;;;;;;7.50;5.00;;;;;25.32;75.04;102339.41;4984279;28;44807;-87
2022/07/06 07:25:38;;;;;;;;;5.00;5.00;;;;;25.32;73.20;102338.56;5001606;28;44851;-87
2022/07/06 07:28:04;;;;;;;;;3.20;3.20;;;;;25.20;74.96;102326.25;5002080;28;45151;-87
2022/07/06 07:30:30;;;;;;;;;2.80;2.80;;;;;25.34;73.39;102333.84;5003549;28;45236;-87
2022/07/06 07:32:55;;;;;;;;;3.00;3.00;;;;;25.37;72.40;102337.06;5007202;28;44695;-87
2022/07/06 07:35:21;;;;;;;;;5.00;4.00;;;;;25.00;68.64;102334.59;5010926;28;44815;-87
2022/07/06 07:37:47;;;;;;;;;6.00;4.00;;;;;24.81;75.54;102334.78;4990253;28;45362;-87
2022/07/06 07:40:12;;;;;;;;;6.25;5.00;;;;;24.96;79.10;102324.19;5012943;28;44707;-88
2022/07/06 07:42:40;;;;;;;;;6.00;5.00;;;;;24.90;72.71;102338.38;5021485;28;44903;-87
2022/07/06 07:45:06;;;;;;;;;4.60;4.60;;;;;24.59;69.36;102339.66;5004449;28;45419;-87
2022/07/06 07:47:32;;;;;;;;;6.60;4.00;;;;;24.19;71.77;102325.66;5004346;28;45288;-87
2022/07/06 07:49:57;;;;;;;;;1.25;1.00;;;;;24.01;77.20;102331.03;5005653;28;44750;-87
2022/07/06 07:52:23;;;;;;;;;4.00;4.00;;;;;23.75;73.83;102331.75;5011697;28;44783;-87
2022/07/06 07:54:48;;;;;;;;;6.00;4.25;;;;;23.58;76.63;102319.78;5008939;28;44823;-87
2022/07/06 07:57:14;;;;;;;;;7.00;5.00;;;;;23.67;79.13;102325.34;5006740;28;45422;-87
2022/07/06 07:59:39;;;;;;;;;4.00;3.50;;;;;23.82;79.59;102330.13;5007210;28;44837;-87
2022/07/06 08:02:04;;;;;;;;;4.00;3.75;;;;;23.75;76.86;102325.47;4988767;28;44752;-86
2022/07/06 08:04:30;;;;;;;;;6.75;5.75;;;;;23.43;76.96;102328.56;5007102;28;44830;-86
2022/07/06 08:06:55;;;;;;;;;6.00;6.00;;;;;22.70;81.17;102320.97;4989407;28;45380;-86
2022/07/06 08:09:21;;;;;;;;;4.75;4.75;;;;;22.27;85.12;102315.94;5009315;28;44629;-87
2022/07/06 08:11:46;;;;;;;;;4.00;4.00;;;;;22.27;85.84;102314.09;5005244;28;44808;-86
2022/07/06 08:14:13;;;;;;;;;5.00;5.00;;;;;22.56;85.08;102316.81;5002314;28;44749;-86
2022/07/06 08:16:38;;;;;;;;;6.20;6.20;;;;;22.58;84.70;102308.56;5003706;28;45025;-86
2022/07/06 08:19:04;;;;;;;;;7.75;5.00;;;;;22.58;86.24;102312.13;5004037;28;44826;-87
2022/07/06 08:21:29;;;;;;;;;9.00;8.00;;;;;22.39;86.40;102314.84;5002848;28;44959;-86
2022/07/06 08:23:55;;;;;;;;;8.50;8.50;;;;;22.26;86.39;102322.38;5003810;28;44825;-86
2022/07/06 08:26:20;;;;;;;;;7.25;5.50;;;;;22.19;88.00;102316.66;5006315;28;44928;-86
2022/07/06 08:28:46;;;;;;;;;7.00;5.75;;;;;22.38;87.58;102312.25;5005232;28;44871;-86
2022/07/06 08:31:12;;;;;;;;;5.50;5.50;;;;;22.77;86.46;102321.22;5006904;28;45360;-82
2022/07/06 08:33:37;;;;;;;;;3.50;3.25;;;;;22.64;86.16;102317.97;4982602;28;45260;-83
2022/07/06 08:36:03;;;;;;;;;8.25;8.25;;;;;22.67;86.01;102326.66;4997244;28;46110;-81
2022/07/06 08:38:28;;;;;;;;;8.75;6.50;;;;;22.81;87.11;102315.38;4993413;28;44733;-80
2022/07/06 08:40:54;;;;;;;;;11.00;9.50;;;;;22.98;85.56;102310.28;5001107;28;45170;-81
2022/07/06 08:43:20;;;;;;;;;8.20;8.20;;;;;22.37;88.89;102319.50;5000392;28;44798;-81
2022/07/06 08:45:50;;;;;;;;;8.00;8.00;;;;;22.11;90.73;102316.50;4989943;28;45407;-81
2022/07/06 08:48:16;;;;;;;;;9.80;8.80;;;;;22.30;90.43;102318.38;4993464;28;44763;-82
2022/07/06 08:50:41;;;;;;;;;7.60;7.60;;;;;22.61;89.73;102313.69;4982233;28;45319;-82
2022/07/06 08:53:07;;;;;;;;;11.50;8.50;;;;;22.57;89.62;102323.94;4996310;28;44756;-82
2022/07/06 08:55:34;;;;;;;;;8.25;7.00;;;;;22.51;89.55;102326.38;4986522;28;44988;-80
2022/07/06 08:57:59;;;;;;;;;4.80;4.00;;;;;22.11;92.00;102302.97;4997205;28;44673;-80
2022/07/06 09:00:25;;;;;;;;;8.50;8.50;;;;;22.29;91.87;102300.44;4983253;28;45158;-80
2022/07/06 09:02:53;;;;;;;;;9.50;8.25;;;;;22.36;89.57;102320.53;4996401;28;45252;-80
2022/07/06 09:05:22;;;;;;;;;7.60;7.40;;;;;22.44;90.15;102306.28;4983968;28;46622;-84
2022/07/06 09:07:52;;;;;;;;;8.60;6.20;;;;;22.55;89.88;102309.69;4996721;28;45196;-83
2022/07/06 09:10:20;;;;;;;;;4.40;3.20;;;;;22.83;88.44;102301.69;4988260;28;45454;-85
2022/07/06 09:12:46;;;;;;;;;7.20;6.60;;;;;22.94;88.14;102306.13;5000378;28;44932;-86
2022/07/06 09:15:12;;;;;;;;;7.50;6.00;;;;;23.18;86.60;102313.78;5001955;28;45386;-85
2022/07/06 09:17:39;;;;;;;;;5.25;5.25;;;;;22.72;87.15;102309.97;5005551;28;44791;-84
2022/07/06 09:20:09;;;;;;;;;8.20;8.20;;;;;22.72;88.62;102308.09;4992687;28;44825;-84
2022/07/06 09:22:35;;;;;;;;;7.40;6.40;;;;;22.89;87.70;102295.72;4980668;28;45406;-80
2022/07/06 09:25:06;;;;;;;;;5.50;3.25;;;;;22.89;84.10;102305.72;4987869;28;45451;-81
2022/07/06 09:27:31;;;;;;;;;7.00;5.00;;;;;22.92;82.67;102300.88;4991797;28;44799;-81
2022/07/06 09:30:01;;;;;;;;;8.50;8.50;;;;;22.78;83.22;102298.56;4988623;28;44810;-81
2022/07/06 09:32:27;;;;;;;;;6.00;6.00;;;;;22.94;85.72;102284.44;4979510;28;45609;-80
2022/07/06 09:34:52;;;;;;;;;7.75;6.75;;;;;23.10;84.36;102290.09;4993998;28;45637;-80
2022/07/06 09:37:17;;;;;;;;;6.25;6.00;;;;;23.26;84.47;102286.81;4978007;28;45201;-85
2022/07/06 09:39:44;;;;;;;;;9.75;9.75;;;;;23.39;83.61;102284.59;4997805;28;44928;-84
2022/07/06 09:42:10;;;;;;;;;11.20;7.20;;;;;23.53;81.62;102280.53;5004794;28;44822;-83
2022/07/06 09:44:38;;;;;;;;;6.75;6.75;;;;;23.73;79.68;102284.03;4981792;28;45090;-85
2022/07/06 09:47:09;;;;;;;;;5.00;4.00;;;;;23.51;73.65;102293.41;4963287;28;45565;-81
2022/07/06 09:49:38;;;;;;;;;7.40;4.00;;;;;23.16;72.27;102299.50;4978079;28;45434;-80
2022/07/06 09:52:07;;;;;;;;;6.40;4.80;;;;;23.07;73.91;102293.97;4985683;28;44777;-81
2022/07/06 09:54:38;;;;;;;;;6.00;5.00;;;;;23.14;75.10;102296.94;4982102;28;46016;-84
2022/07/06 09:57:04;;;;;;;;;5.00;5.00;;;;;23.30;75.05;102290.91;5000571;28;44795;-84
2022/07/06 09:59:33;;;;;;;;;6.20;4.40;;;;;23.42;76.45;102292.44;5002463;28;45543;-84
2022/07/06 10:02:02;;;;;;;;;5.20;5.00;;;;;23.07;77.60;102302.13;5004032;28;44761;-84
2022/07/06 10:04:28;;;;;;;;;4.00;4.00;;;;;23.25;77.22;102307.63;5001191;28;45268;-84
2022/07/06 10:06:56;;;;;;;;;3.20;3.20;;;;;23.27;76.64;102310.19;5000111;28;45359;-84
2022/07/06 10:09:23;;;;;;;;;6.00;4.40;;;;;23.53;75.66;102308.53;5001650;28;45271;-85
2022/07/06 10:11:57;;;;;;;;;7.60;7.60;;;;;23.46;75.17;102306.56;4981770;28;45190;-80
2022/07/06 10:14:25;;;;;;;;;5.60;5.60;;;;;23.44;74.10;102306.69;4997105;28;45378;-81
2022/07/06 10:16:51;;;;;;;;;4.20;3.20;;;;;23.76;73.73;102303.59;4996448;28;45432;-81
2022/07/06 10:19:19;;;;;;;;;5.40;5.40;;;;;23.53;74.45;102294.09;4996995;28;44886;-80
2022/07/06 10:21:45;;;;;;;;;4.80;4.80;;;;;23.56;71.51;102289.25;4996554;28;44841;-80
2022/07/06 10:24:12;;;;;;;;;4.80;4.80;;;;;23.49;74.08;102298.13;4997763;28;45397;-83
2022/07/06 10:26:38;;;;;;;;;7.40;5.60;;;;;23.46;74.78;102298.44;4997531;28;45346;-80
2022/07/06 10:29:05;;;;;;;;;4.20;4.20;;;;;23.50;74.52;102295.28;4996753;28;45341;-80
2022/07/06 10:31:32;;;;;;;;;5.20;4.00;;;;;23.35;76.07;102285.88;4999146;28;45299;-83
2022/07/06 10:33:59;;;;;;;;;5.60;5.60;;;;;23.65;75.05;102292.94;4999841;28;45433;-84
2022/07/06 10:36:26;;;;;;;;;4.40;4.40;;;;;23.88;73.42;102287.09;5000578;28;45325;-83
2022/07/06 10:38:52;;;;;;;;;4.20;4.20;;;;;24.05;72.17;102287.13;5003362;28;45398;-84
2022/07/06 10:41:29;;;;;;;;;4.75;4.00;;;;;24.17;71.50;102285.03;5003573;28;44788;-83
2022/07/06 10:43:57;;;;;;;;;6.00;4.40;;;;;24.63;71.67;102274.97;5003017;28;45387;-80
2022/07/06 10:46:23;;;;;;;;;3.80;3.80;;;;;24.96;67.34;102284.25;4998280;28;45044;-80
2022/07/06 10:48:49;;;;;;;;;4.60;4.60;;;;;24.75;68.81;102278.28;4997056;28;45547;-80
2022/07/06 10:51:27;;;;;;;;;5.60;4.80;;;;;24.66;70.42;102284.66;4977613;28;44922;-80
2022/07/06 10:54:04;;;;;;;;;6.80;6.80;;;;;24.42;72.27;102288.91;4976784;28;45144;-80
2022/07/06 10:56:40;;;;;;;;;6.00;6.00;;;;;24.25;73.06;102292.44;4996109;28;45432;-83
2022/07/06 10:59:16;;;;;;;;;6.20;6.00;;;;;24.53;72.67;102288.66;4998530;28;44652;-84
2022/07/06 11:02:12;;;;;;;;;4.80;4.40;;;;;24.78;69.46;102291.59;4999523;28;44748;-84
2022/07/06 11:04:38;;;;;;;;;6.20;6.20;;;;;24.73;70.52;102277.63;5006512;28;45418;-83
2022/07/06 11:07:09;;;;;;;;;6.20;5.20;;;;;24.73;72.16;102281.19;5015956;28;44799;-84
2022/07/06 11:09:35;;;;;;;;;6.20;5.20;;;;;24.38;72.99;102290.22;4998222;28;44759;-83
2022/07/06 11:12:12;;;;;;;;;5.20;5.20;;;;;24.21;74.94;102281.00;5000313;28;45178;-84
2022/07/06 11:14:38;;;;;;;;;8.20;6.20;;;;;24.33;72.60;102277.06;5002306;28;45337;-84
2022/07/06 11:17:05;;;;;;;;;4.20;2.80;;;;;24.06;72.04;102280.69;4999018;28;45298;-84
2022/07/06 11:19:31;;;;;;;;;5.20;4.00;;;;;24.35;73.64;102266.03;4998829;28;45306;-83
2022/07/06 11:22:03;;;;;;;;;3.60;3.60;;;;;24.65;71.99;102259.38;4987066;28;44771;-84
2022/07/06 11:24:33;;;;;;;;;6.80;4.20;;;;;24.80;70.82;102268.69;4981473;28;45080;-83